• Join FlightAware (Why Join?)
  • Login
  • US Flag 
03:15AM EDT


 

Airport Tracker/Info


-or-


 

Live Flight TrackerFlight Track Log ✈ AWE3418 ✈ 28-Apr-2013 ✈ KPHL - KMHT

Flight Track Log - Related Links

Times and Time Zones

All times are in EDT time to prevent confusion due to time zone crossing. See the AWE3418 flight status page for this flight to view local times or setup timezone preferences in your user account.

Time Position Orientation Groundspeed Altitude Reporting Facility
EDT Latitude Longitude Course Direction KTS MPH feet Rate Location/Type
08:03PM 39.8833 -75.2167 37° Northeast 146 168 800  Level Philadelphia TRACON
08:04PM 39.8667 -75.1667 113° Southeast 175 201 2,600 2,040 Climbing Philadelphia TRACON
08:05PM 39.8500 -75.1000 108° East 242 278 4,500 2,520 Climbing Philadelphia TRACON
08:07PM 39.7962 -74.7642 105° East  Level FlightAware Approximate
08:08PM 39.8173 -74.6661 37° Northeast  Level FlightAware Approximate
08:08PM 39.8153 -74.8653 101° East 281 323 11,500  Level New York Center
08:09PM 39.8918 -74.5916 37° Northeast  Level FlightAware Approximate
08:09PM 39.8025 -74.7536 98° East 290 334 14,000  Level New York Center
08:10PM 39.8514 -74.6619 55° Northeast 278 320 16,500 2,220 Climbing New York Center
08:11PM 39.9289 -74.5850 37° Northeast 297 342 18,500 2,160 Climbing New York Center
08:12PM 40.0086 -74.5081 36° Northeast 337 388 20,900 2,280 Climbing New York Center
08:13PM 40.0925 -74.4231 38° Northeast 364 419 23,100 2,100 Climbing New York Center
08:14PM 40.1764 -74.3378 38° Northeast 377 434 25,200 1,800 Climbing New York Center
08:15PM 40.2644 -74.2525 36° Northeast 377 434 26,700 900 Climbing New York Center
08:16PM 40.3714 -74.2253 11° North 367 422 27,000 120 Climbing New York Center
08:17PM 40.4783 -74.2089 North 372 428 27,000 480 Level New York Center
08:19PM 40.7075 -74.1703 North 382 440 28,600 600 Climbing Boston Center
08:20PM 40.8347 -74.1519 North 397 457 29,000 180 Climbing Boston Center
08:21PM 40.9517 -74.1331 North 410 472 29,000  Level Boston Center
08:22PM 41.0689 -74.1111 North 421 484 29,000  Level Boston Center
08:23PM 41.2108 -74.0847 North 426 490 29,000  Level Boston Center
08:24PM 41.3239 -74.0625 North 426 490 29,000  Level Boston Center
08:25PM 41.4450 -74.0408 North 426 490 29,000  Level Boston Center
08:26PM 41.5597 -74.0214 North 426 490 29,000  Level Boston Center
08:27PM 41.6811 -73.9994 North 426 490 29,000  Level Boston Center
08:28PM 41.8022 -73.9800 North 415 478 29,000 -480 Level Boston Center
08:29PM 41.9172 -73.9606 North 410 472 28,100 -900 Descending Boston Center
08:30PM 42.0239 -73.9158 17° North 405 466 27,200 -960 Descending Boston Center
08:32PM 42.1317 -73.7950 40° Northeast 401 461 26,000 -1,020 Descending Boston Center
08:33PM 42.1894 -73.6617 60° Northeast 451 519 25,000 -1,080 Descending Boston Center
08:34PM 42.2492 -73.5283 59° Northeast 434 499 23,900 -1,200 Descending Boston Center
08:35PM 42.3047 -73.4058 58° Northeast 408 470 22,700 -1,200 Descending Boston Center
08:36PM 42.3578 -73.2858 59° Northeast 386 444 21,500 -1,200 Descending Boston Center
08:37PM 42.4128 -73.1600 59° Northeast 378 435 20,300 -1,200 Descending Boston Center
08:38PM 42.4656 -73.0425 59° Northeast 373 429 19,100 -660 Descending Boston Center
08:39PM 42.5161 -72.9303 59° Northeast 358 412 19,000 -120 Descending Boston Center
08:40PM 42.5728 -72.8008 59° Northeast 358 412 18,900 -660 Descending Boston Center
08:41PM 42.6189 -72.6969 59° Northeast 358 412 17,700 -1,320 Descending Boston Center
08:42PM 42.6669 -72.5869 59° Northeast 352 405 16,300 -1,500 Descending Boston Center
08:43PM 42.7150 -72.4769 59° Northeast 347 399 14,800 -1,500 Descending Boston Center
08:44PM 42.7631 -72.3694 59° Northeast 336 387 13,300 -1,560 Descending Boston Center
08:45PM 42.7942 -72.2561 69° East 324 373 11,700 -1,500 Descending Boston Center
08:46PM 42.8064 -72.1344 82° East 302 348 10,300 -1,320 Descending Boston Center
08:47PM 42.8144 -72.0353 84° East 289 333 9,100 -1,500 Descending Boston Center
08:48PM 42.8600 -71.9417 56° Northeast 265 305 7,400 -1,800 Descending Boston Center
08:49PM 42.8992 -71.8619 56° Northeast 270 311 5,600 -1,680 Descending Boston Center
08:50PM 42.9486 -71.7678 54° Northeast 275 316 4,100 -840 Descending Boston Center
08:51PM 42.9919 -71.6936 51° Northeast 270 311 4,000 -420 Descending Boston Center
08:52PM 43.0247 -71.6081 62° Northeast 244 281 3,300 -540 Descending Boston Center
08:53PM 43.0472 -71.5394 66° East 210 242 3,000 -300 Descending Boston Center